createdAt,value
2023-02-22T00:01:08.344Z,23.13
2023-02-22T00:03:35.511Z,25.23
2023-02-22T00:06:05.329Z,28.60
2023-02-22T00:08:37.138Z,28.75
2023-02-22T00:11:11.473Z,21.17
2023-02-22T00:13:39.020Z,29.92
2023-02-22T00:16:06.438Z,28.60
2023-02-22T00:18:33.627Z,24.48
2023-02-22T00:21:01.191Z,25.08
2023-02-22T00:23:30.050Z,24.30
2023-02-22T00:25:58.269Z,29.42
2023-02-22T00:28:25.560Z,21.48
2023-02-22T00:30:54.886Z,25.70
2023-02-22T00:33:22.106Z,25.00
2023-02-22T00:35:49.032Z,24.67
2023-02-22T00:38:18.021Z,23.27
2023-02-22T00:40:45.543Z,21.92
2023-02-22T00:43:15.393Z,23.98
2023-02-22T00:45:43.131Z,20.25
2023-02-22T00:48:10.372Z,17.42
2023-02-22T00:50:37.726Z,21.77
2023-02-22T00:53:05.654Z,27.10
2023-02-22T00:55:35.600Z,23.52
2023-02-22T00:58:03.124Z,16.98
2023-02-22T01:00:34.849Z,18.33
2023-02-22T01:03:01.871Z,19.90
2023-02-22T01:05:30.235Z,16.02
2023-02-22T01:07:58.592Z,19.38
2023-02-22T01:10:27.874Z,22.67
2023-02-22T01:12:55.191Z,20.02
2023-02-22T01:15:23.863Z,25.30
2023-02-22T01:17:53.692Z,20.77
2023-02-22T01:20:29.396Z,18.98
2023-02-22T01:23:00.511Z,21.95
2023-02-22T01:25:29.626Z,17.70
2023-02-22T01:27:58.489Z,17.67
2023-02-22T01:30:28.948Z,21.35
2023-02-22T01:32:56.518Z,18.45
2023-02-22T01:35:27.801Z,16.48
2023-02-22T01:37:55.222Z,20.80
2023-02-22T01:40:25.790Z,19.85
2023-02-22T01:42:54.594Z,23.27
2023-02-22T01:45:30.830Z,15.85
2023-02-22T01:48:03.875Z,19.33
2023-02-22T01:50:32.618Z,20.15
2023-02-22T01:53:00.107Z,20.48
2023-02-22T01:55:27.944Z,18.00
2023-02-22T01:57:55.150Z,19.65
2023-02-22T02:00:24.433Z,19.25
2023-02-22T02:02:59.147Z,23.13
2023-02-22T02:05:27.520Z,20.52
2023-02-22T02:07:55.710Z,18.92
2023-02-22T02:10:24.393Z,15.80
2023-02-22T02:12:53.700Z,17.17
2023-02-22T02:15:31.209Z,16.50
2023-02-22T02:18:04.185Z,16.88
2023-02-22T02:20:49.943Z,18.75
2023-02-22T02:23:28.822Z,18.92
2023-02-22T02:26:17.419Z,20.08
2023-02-22T02:28:47.322Z,21.05
2023-02-22T02:31:40.318Z,23.67
2023-02-22T02:34:25.439Z,28.42
2023-02-22T02:37:10.946Z,28.45
2023-02-22T02:40:02.269Z,20.38
2023-02-22T02:42:35.277Z,20.25
2023-02-22T02:45:10.153Z,24.17
2023-02-22T02:47:46.504Z,28.63
2023-02-22T02:50:34.368Z,27.80
2023-02-22T02:53:03.288Z,30.65
2023-02-22T02:55:30.932Z,30.65
2023-02-22T02:57:59.485Z,25.95
2023-02-22T03:00:29.765Z,27.08
2023-02-22T03:03:16.931Z,23.33
2023-02-22T03:06:12.057Z,21.10
2023-02-22T03:08:53.609Z,23.75
2023-02-22T03:11:24.294Z,22.67
2023-02-22T03:14:05.070Z,27.08
2023-02-22T03:17:17.015Z,19.63
2023-02-22T03:19:52.008Z,22.73
2023-02-22T03:22:24.922Z,23.45
2023-02-22T03:25:07.164Z,24.08
2023-02-22T03:27:50.447Z,23.52
2023-02-22T03:30:26.345Z,26.40
2023-02-22T03:32:58.676Z,27.73
2023-02-22T03:35:30.662Z,23.52
2023-02-22T03:38:00.510Z,21.13
2023-02-22T03:40:47.688Z,24.75
2023-02-22T03:43:22.047Z,22.35
2023-02-22T03:45:50.026Z,18.55
2023-02-22T03:48:44.445Z,25.35
2023-02-22T03:51:16.922Z,23.48
2023-02-22T03:53:44.814Z,26.23
2023-02-22T03:56:16.508Z,20.90
2023-02-22T03:58:45.505Z,20.83
2023-02-22T04:01:13.136Z,20.60
2023-02-22T04:03:42.150Z,18.77
2023-02-22T04:06:10.385Z,24.42
2023-02-22T04:08:37.902Z,22.23
2023-02-22T04:11:05.219Z,23.45
2023-02-22T04:13:32.452Z,26.42
2023-02-22T04:15:59.823Z,27.80
2023-02-22T04:18:26.935Z,26.63
2023-02-22T04:20:53.940Z,20.90
2023-02-22T04:23:20.963Z,23.70
2023-02-22T04:25:48.539Z,20.55
2023-02-22T04:28:15.547Z,18.40
2023-02-22T04:30:44.061Z,18.38
2023-02-22T04:33:11.094Z,18.50
2023-02-22T04:35:38.405Z,17.88
2023-02-22T04:38:05.722Z,17.90
2023-02-22T04:40:35.361Z,17.83
2023-02-22T04:43:02.392Z,16.58
2023-02-22T04:45:32.113Z,19.70
2023-02-22T04:47:59.123Z,19.90
2023-02-22T04:50:28.295Z,14.60
2023-02-22T04:52:56.481Z,17.35
2023-02-22T04:55:23.397Z,16.10
2023-02-22T04:57:50.629Z,16.92
2023-02-22T05:00:18.937Z,13.77
2023-02-22T05:02:46.038Z,15.10
2023-02-22T05:05:15.151Z,14.02
2023-02-22T05:07:44.913Z,15.93
2023-02-22T05:10:12.147Z,13.77
2023-02-22T05:12:39.238Z,18.73
2023-02-22T05:15:08.630Z,15.13
2023-02-22T05:17:36.254Z,11.80
2023-02-22T05:20:04.908Z,13.05
2023-02-22T05:22:34.056Z,12.50
2023-02-22T05:25:00.951Z,11.90
2023-02-22T05:27:27.996Z,12.70
2023-02-22T05:29:54.968Z,11.05
2023-02-22T05:32:22.212Z,11.75
2023-02-22T05:34:53.767Z,14.00
2023-02-22T05:37:20.813Z,11.52
2023-02-22T05:39:51.049Z,12.90
2023-02-22T05:42:19.739Z,15.40
2023-02-22T05:44:46.697Z,10.00
2023-02-22T05:47:13.612Z,13.82
2023-02-22T05:49:40.678Z,14.35
2023-02-22T05:52:07.682Z,11.18
2023-02-22T05:54:34.648Z,8.70
2023-02-22T05:57:02.034Z,10.98
2023-02-22T05:59:30.281Z,12.70
2023-02-22T06:01:57.347Z,17.67
2023-02-22T06:04:24.353Z,19.75
2023-02-22T06:06:51.456Z,11.00
2023-02-22T06:09:18.530Z,16.42
2023-02-22T06:11:45.454Z,13.27
2023-02-22T06:14:12.529Z,20.85
2023-02-22T06:16:39.509Z,15.13
2023-02-22T06:19:06.485Z,10.85
2023-02-22T06:21:33.567Z,11.63
2023-02-22T06:24:04.170Z,11.35
2023-02-22T06:26:31.192Z,12.63
2023-02-22T06:29:00.689Z,11.05
2023-02-22T06:31:27.693Z,8.38
2023-02-22T06:33:54.647Z,11.85
2023-02-22T06:36:21.509Z,10.43
2023-02-22T06:38:48.593Z,11.43
2023-02-22T06:41:16.077Z,9.70
2023-02-22T06:43:43.148Z,9.95
2023-02-22T06:46:11.564Z,11.10
2023-02-22T06:48:42.064Z,11.40
2023-02-22T06:51:09.736Z,11.85
2023-02-22T06:53:36.920Z,22.42
2023-02-22T06:56:04.425Z,22.98
2023-02-22T06:58:31.294Z,39.90
2023-02-22T07:00:58.212Z,72.22
2023-02-22T07:03:25.466Z,52.83
2023-02-22T07:05:52.441Z,79.85
2023-02-22T07:08:19.327Z,76.60
2023-02-22T07:10:46.205Z,57.97
2023-02-22T07:13:13.102Z,34.50
2023-02-22T07:15:40.082Z,28.60
2023-02-22T07:18:07.581Z,23.48
2023-02-22T07:20:34.657Z,21.38
2023-02-22T07:23:01.803Z,27.27
2023-02-22T07:25:28.775Z,19.00
2023-02-22T07:27:55.803Z,19.05
2023-02-22T07:30:37.068Z,22.60
2023-02-22T07:33:08.175Z,28.02
2023-02-22T07:35:44.016Z,16.42
2023-02-22T07:38:10.924Z,20.15
2023-02-22T07:40:38.610Z,13.32
2023-02-22T07:43:07.400Z,24.75
2023-02-22T07:45:35.633Z,27.98
2023-02-22T07:48:06.398Z,31.45
2023-02-22T07:50:34.610Z,38.63
2023-02-22T07:53:04.538Z,36.45
2023-02-22T07:55:32.740Z,35.80
2023-02-22T07:58:01.729Z,37.47
2023-02-22T08:00:33.425Z,43.70
2023-02-22T08:03:01.510Z,44.55
2023-02-22T08:05:29.714Z,48.45
2023-02-22T08:07:57.077Z,52.90
2023-02-22T08:10:25.687Z,46.80
2023-02-22T08:12:53.855Z,59.97
2023-02-22T08:15:28.610Z,38.80
2023-02-22T08:17:56.140Z,46.15
2023-02-22T08:20:24.183Z,45.88
2023-02-22T08:22:51.747Z,47.47
2023-02-22T08:25:20.414Z,51.53
2023-02-22T08:27:49.636Z,43.80
2023-02-22T08:30:22.065Z,39.20
2023-02-22T08:32:50.582Z,39.15
2023-02-22T08:35:19.499Z,34.53
2023-02-22T08:37:51.847Z,31.38
2023-02-22T08:40:21.723Z,22.25
2023-02-22T08:42:48.627Z,22.10
2023-02-22T08:45:15.798Z,16.63
2023-02-22T08:47:43.108Z,15.23
2023-02-22T08:50:15.235Z,16.85
2023-02-22T08:52:42.595Z,11.75
2023-02-22T08:55:12.090Z,10.98
2023-02-22T08:57:39.150Z,9.55
2023-02-22T09:00:06.811Z,8.23
2023-02-22T09:02:33.694Z,6.32
2023-02-22T09:05:00.643Z,8.63
2023-02-22T09:07:27.660Z,13.70
2023-02-22T09:09:56.967Z,7.72
2023-02-22T09:12:23.971Z,5.88
2023-02-22T09:14:50.959Z,9.85
2023-02-22T09:17:17.974Z,9.48
2023-02-22T09:19:45.537Z,8.02
2023-02-22T09:22:12.473Z,10.73
2023-02-22T09:24:39.376Z,8.50
2023-02-22T09:27:07.463Z,5.45
2023-02-22T09:29:34.479Z,9.48
2023-02-22T09:32:01.588Z,8.43
2023-02-22T09:34:29.722Z,7.25
2023-02-22T09:36:57.936Z,8.00
2023-02-22T09:39:25.510Z,6.00
2023-02-22T09:42:14.005Z,12.55
2023-02-22T09:44:56.085Z,9.82
2023-02-22T09:47:32.599Z,6.00
2023-02-22T09:50:15.721Z,6.82
2023-02-22T09:52:54.199Z,6.25
2023-02-22T09:55:36.024Z,4.75
2023-02-22T09:58:09.109Z,6.32
2023-02-22T10:00:38.678Z,4.68
2023-02-22T10:03:34.908Z,5.00
2023-02-22T10:06:06.391Z,5.50
2023-02-22T10:08:34.425Z,4.78
2023-02-22T10:11:40.296Z,4.85
2023-02-22T10:14:33.550Z,4.90
2023-02-22T10:17:15.645Z,4.55
2023-02-22T10:19:48.447Z,5.50
2023-02-22T10:22:22.229Z,7.88
2023-02-22T10:25:04.935Z,20.90
2023-02-22T10:27:39.134Z,11.27
2023-02-22T10:30:25.938Z,7.05
2023-02-22T10:33:01.756Z,7.68
2023-02-22T10:35:31.131Z,9.57
2023-02-22T10:38:02.437Z,17.73
2023-02-22T10:40:35.031Z,12.60
2023-02-22T10:43:08.473Z,8.20
2023-02-22T10:45:37.250Z,11.52
2023-02-22T10:48:18.575Z,11.70
2023-02-22T10:50:46.467Z,7.13
2023-02-22T10:53:15.518Z,4.97
2023-02-22T10:56:05.754Z,4.65
2023-02-22T10:58:40.932Z,5.13
2023-02-22T11:01:21.298Z,8.52
2023-02-22T11:04:04.674Z,4.60
2023-02-22T11:06:34.025Z,5.05
2023-02-22T11:09:10.498Z,3.92
2023-02-22T11:11:38.867Z,6.05
2023-02-22T11:14:06.939Z,6.70
2023-02-22T11:16:39.922Z,5.03
2023-02-22T11:19:24.452Z,8.90
2023-02-22T11:22:12.052Z,5.47
2023-02-22T11:24:51.578Z,4.68
2023-02-22T11:27:31.765Z,6.07
2023-02-22T11:30:17.111Z,5.85
2023-02-22T11:32:46.831Z,4.78
2023-02-22T11:35:29.060Z,4.32
2023-02-22T11:38:16.376Z,5.22
2023-02-22T11:40:44.328Z,5.30
2023-02-22T11:43:19.169Z,3.70
2023-02-22T11:46:02.184Z,3.63
2023-02-22T11:48:34.807Z,4.13
2023-02-22T11:51:43.029Z,5.70
2023-02-22T11:54:19.554Z,3.85
2023-02-22T11:56:49.390Z,3.53
2023-02-22T11:59:41.154Z,4.20
2023-02-22T12:02:20.296Z,6.55
2023-02-22T12:04:56.266Z,8.77
2023-02-22T12:07:32.841Z,4.55
2023-02-22T12:10:15.009Z,5.72
2023-02-22T12:13:20.798Z,5.13
2023-02-22T12:16:35.578Z,9.23
2023-02-22T12:19:02.446Z,8.30
2023-02-22T12:21:30.936Z,6.28
2023-02-22T12:24:07.320Z,4.18
2023-02-22T12:26:41.452Z,4.78
2023-02-22T12:29:47.158Z,4.95
2023-02-22T12:32:24.797Z,4.63
2023-02-22T12:35:30.631Z,3.90
2023-02-22T12:38:24.837Z,3.60
2023-02-22T12:41:11.490Z,4.22
2023-02-22T12:43:45.021Z,9.48
2023-02-22T12:46:19.090Z,4.72
2023-02-22T12:48:58.495Z,6.35
2023-02-22T12:51:51.976Z,8.88
2023-02-22T12:54:25.987Z,6.53
2023-02-22T12:57:14.705Z,5.68
2023-02-22T13:00:08.687Z,5.95
2023-02-22T13:02:38.804Z,4.65
2023-02-22T13:05:07.154Z,6.80
2023-02-22T13:07:46.135Z,4.45
2023-02-22T13:10:45.980Z,8.73
2023-02-22T13:13:17.959Z,6.97
2023-02-22T13:16:08.146Z,4.18
2023-02-22T13:21:52.939Z,4.22
2023-02-22T13:24:31.556Z,5.25
2023-02-22T13:27:14.791Z,10.15
2023-02-22T13:29:43.769Z,5.45
2023-02-22T13:32:20.304Z,4.38
2023-02-22T13:35:19.430Z,8.55
2023-02-22T13:38:33.769Z,9.02
2023-02-22T13:41:09.055Z,6.15
2023-02-22T13:43:52.228Z,10.63
2023-02-22T13:46:37.256Z,8.88
2023-02-22T13:49:25.642Z,4.97
2023-02-22T13:52:01.507Z,10.05
2023-02-22T13:54:54.604Z,7.35
2023-02-22T13:57:28.141Z,6.18
2023-02-22T14:00:23.243Z,11.57
2023-02-22T14:03:14.446Z,12.30
2023-02-22T14:05:47.451Z,9.50
2023-02-22T14:08:14.365Z,15.02
2023-02-22T14:10:44.032Z,12.50
2023-02-22T14:13:11.445Z,12.32
2023-02-22T14:16:00.004Z,11.98
2023-02-22T14:18:31.560Z,10.23
2023-02-22T14:21:05.671Z,15.75
2023-02-22T14:23:37.085Z,12.75
2023-02-22T14:26:21.055Z,10.17
2023-02-22T14:28:51.079Z,8.13
2023-02-22T14:31:34.881Z,8.63
2023-02-22T14:34:15.622Z,14.38
2023-02-22T14:37:05.254Z,15.40
2023-02-22T14:39:51.394Z,13.50
2023-02-22T14:42:30.635Z,9.30
2023-02-22T14:45:06.087Z,10.43
2023-02-22T14:47:49.654Z,8.60
2023-02-22T14:50:24.148Z,8.65
2023-02-22T14:53:32.382Z,7.05
2023-02-22T14:56:04.751Z,10.23
2023-02-22T14:58:36.756Z,6.43
2023-02-22T15:01:20.264Z,13.15
2023-02-22T15:03:53.625Z,10.13
2023-02-22T15:06:28.772Z,7.93
2023-02-22T15:09:29.207Z,10.13
2023-02-22T15:12:03.144Z,9.70
2023-02-22T15:14:33.162Z,19.20
2023-02-22T15:17:03.207Z,13.45
2023-02-22T15:19:32.245Z,10.25
2023-02-22T15:22:01.402Z,10.20
2023-02-22T15:24:31.889Z,9.93
2023-02-22T15:27:07.321Z,9.30
2023-02-22T15:29:39.735Z,9.35
2023-02-22T15:32:36.691Z,14.63
2023-02-22T15:35:17.206Z,15.50
2023-02-22T15:37:46.111Z,15.93
2023-02-22T15:40:16.410Z,21.95
2023-02-22T15:42:49.029Z,15.77
2023-02-22T15:45:19.976Z,13.68
2023-02-22T15:47:49.209Z,9.80
2023-02-22T15:50:25.589Z,14.95
2023-02-22T15:53:14.171Z,10.18
2023-02-22T15:55:47.385Z,12.93
2023-02-22T15:58:23.858Z,12.23
2023-02-22T16:01:04.169Z,19.00
2023-02-22T16:03:44.934Z,19.48
2023-02-22T16:06:29.704Z,17.33
2023-02-22T16:09:02.840Z,22.58
2023-02-22T16:11:43.231Z,46.60
2023-02-22T16:14:25.390Z,55.28
2023-02-22T16:17:37.243Z,45.45
2023-02-22T16:20:14.272Z,44.13
2023-02-22T16:22:46.658Z,48.53
2023-02-22T16:25:20.235Z,55.67
2023-02-22T16:27:52.657Z,55.13
2023-02-22T16:30:33.699Z,51.58
2023-02-22T16:33:05.602Z,48.90
2023-02-22T16:35:35.601Z,43.42
2023-02-22T16:38:17.071Z,39.60
2023-02-22T16:40:53.952Z,32.97
2023-02-22T16:43:23.923Z,26.52
2023-02-22T16:45:53.098Z,20.50
2023-02-22T16:48:25.889Z,16.55
2023-02-22T16:51:00.320Z,23.15
2023-02-22T16:53:32.546Z,32.75
2023-02-22T16:56:05.254Z,33.25
2023-02-22T16:58:37.355Z,34.17
2023-02-22T17:03:31.451Z,31.05
2023-02-22T17:05:58.459Z,43.45
2023-02-22T17:08:25.414Z,47.78
2023-02-22T17:10:56.804Z,42.28
2023-02-22T17:13:27.153Z,40.70
2023-02-22T17:15:55.213Z,51.05
2023-02-22T17:18:23.246Z,51.08
2023-02-22T17:20:51.701Z,31.33
2023-02-22T17:23:19.391Z,39.45
2023-02-22T17:25:49.200Z,41.80
2023-02-22T17:28:16.947Z,44.22
2023-02-22T17:30:45.418Z,82.15
2023-02-22T17:33:16.085Z,72.93
2023-02-22T17:35:43.304Z,80.55
2023-02-22T17:38:10.569Z,108.10
2023-02-22T17:40:41.753Z,97.18
2023-02-22T17:43:08.964Z,57.40
2023-02-22T17:45:39.541Z,47.67
2023-02-22T17:48:06.833Z,46.97
2023-02-22T17:50:36.502Z,55.20
2023-02-22T17:53:06.604Z,50.22
2023-02-22T17:55:34.428Z,51.53
2023-02-22T17:58:01.534Z,43.45
2023-02-22T18:00:33.644Z,33.63
2023-02-22T18:03:12.199Z,35.03
2023-02-22T18:05:50.420Z,35.47
2023-02-22T18:08:17.700Z,39.28
2023-02-22T18:10:45.437Z,39.65
2023-02-22T18:13:18.124Z,30.90
2023-02-22T18:15:50.932Z,37.78
2023-02-22T18:18:18.462Z,32.17
2023-02-22T18:20:46.716Z,27.00
2023-02-22T18:23:16.314Z,23.90
2023-02-22T18:26:07.678Z,19.48
2023-02-22T18:28:36.701Z,28.88
2023-02-22T18:31:14.852Z,29.85
2023-02-22T18:33:46.901Z,37.40
2023-02-22T18:36:14.587Z,42.85
2023-02-22T18:38:43.221Z,24.33
2023-02-22T18:41:15.721Z,29.48
2023-02-22T18:43:43.313Z,34.63
2023-02-22T18:46:18.349Z,44.70
2023-02-22T18:48:46.925Z,47.47
2023-02-22T18:51:16.209Z,42.15
2023-02-22T18:53:47.063Z,42.25
2023-02-22T18:56:22.037Z,46.20
2023-02-22T18:58:54.502Z,34.22
2023-02-22T19:01:22.632Z,37.10
2023-02-22T19:03:49.726Z,36.78
2023-02-22T19:06:17.946Z,46.10
2023-02-22T19:08:45.904Z,36.88
2023-02-22T19:11:21.876Z,36.97
2023-02-22T19:13:50.924Z,38.30
2023-02-22T19:16:22.201Z,51.63
2023-02-22T19:18:52.422Z,52.33
2023-02-22T19:21:20.322Z,58.45
2023-02-22T19:23:48.666Z,60.42
2023-02-22T19:26:22.431Z,41.40
2023-02-22T19:28:49.920Z,56.05
2023-02-22T19:31:21.822Z,65.50
2023-02-22T19:36:20.540Z,50.85
2023-02-22T19:38:47.787Z,51.42
2023-02-22T19:41:18.829Z,54.80
2023-02-22T19:43:47.032Z,47.92
2023-02-22T19:46:14.191Z,64.38
2023-02-22T19:48:41.309Z,80.40
2023-02-22T19:51:10.420Z,70.35
2023-02-22T19:53:41.104Z,71.28
2023-02-22T19:56:13.809Z,52.40
2023-02-22T19:58:41.975Z,50.95
2023-02-22T20:01:25.568Z,38.80
2023-02-22T20:03:54.385Z,50.85
2023-02-22T20:06:28.118Z,45.13
2023-02-22T20:08:56.056Z,42.83
2023-02-22T20:11:24.149Z,55.75
2023-02-22T20:13:51.234Z,51.33
2023-02-22T20:16:18.167Z,51.25
2023-02-22T20:18:46.383Z,28.30
2023-02-22T20:21:20.259Z,24.83
2023-02-22T20:23:49.591Z,31.20
2023-02-22T20:26:20.121Z,26.83
2023-02-22T20:28:47.105Z,23.55
2023-02-22T20:31:15.167Z,34.30
2023-02-22T20:33:43.507Z,22.40
2023-02-22T20:36:12.069Z,27.50
2023-02-22T20:38:39.128Z,21.60
2023-02-22T20:41:12.619Z,23.83
2023-02-22T20:43:40.041Z,17.75
2023-02-22T20:46:07.439Z,17.92
2023-02-22T20:48:34.984Z,20.77
2023-02-22T20:51:12.217Z,31.13
2023-02-22T20:53:41.884Z,18.98
2023-02-22T20:56:16.761Z,40.97
2023-02-22T20:58:44.057Z,36.25
2023-02-22T21:01:12.244Z,30.45
2023-02-22T21:03:39.454Z,19.00
2023-02-22T21:06:07.090Z,20.35
2023-02-22T21:08:34.142Z,21.95
2023-02-22T21:11:01.430Z,23.08
2023-02-22T21:13:28.375Z,31.60
2023-02-22T21:15:55.256Z,27.52
2023-02-22T21:18:24.911Z,28.17
2023-02-22T21:20:51.980Z,17.15
2023-02-22T21:23:18.971Z,19.98
2023-02-22T21:25:54.441Z,20.15
2023-02-22T21:28:21.737Z,18.88
2023-02-22T21:30:49.294Z,31.27
2023-02-22T21:33:16.933Z,26.90
2023-02-22T21:35:47.154Z,21.10
2023-02-22T21:38:14.614Z,19.60
2023-02-22T21:40:55.650Z,23.73
2023-02-22T21:43:25.135Z,26.13
2023-02-22T21:45:52.145Z,19.60
2023-02-22T21:48:19.110Z,17.63
2023-02-22T21:50:48.071Z,16.48
2023-02-22T21:53:15.026Z,21.38
2023-02-22T21:55:42.043Z,19.20
2023-02-22T21:58:09.648Z,18.25
2023-02-22T22:00:42.548Z,21.50
2023-02-22T22:03:20.398Z,18.23
2023-02-22T22:05:48.227Z,19.85
2023-02-22T22:08:22.260Z,23.45
2023-02-22T22:10:55.415Z,20.30
2023-02-22T22:13:25.594Z,19.35
2023-02-22T22:15:52.532Z,17.45
2023-02-22T22:18:19.618Z,22.25
2023-02-22T22:20:46.544Z,17.80
2023-02-22T22:23:13.444Z,21.70
2023-02-22T22:25:40.799Z,18.25
2023-02-22T22:28:08.450Z,18.65
2023-02-22T22:30:37.169Z,16.65
2023-02-22T22:33:05.734Z,15.98
2023-02-22T22:35:33.625Z,16.33
2023-02-22T22:38:01.101Z,12.75
2023-02-22T22:40:28.491Z,18.92
2023-02-22T22:42:57.665Z,21.95
2023-02-22T22:45:25.452Z,15.50
2023-02-22T22:47:52.511Z,15.88
2023-02-22T22:50:19.926Z,24.77
2023-02-22T22:52:47.250Z,15.02
2023-02-22T22:55:16.943Z,19.65
2023-02-22T22:57:43.861Z,21.58
2023-02-22T23:00:27.074Z,25.88
2023-02-22T23:02:57.307Z,20.73
2023-02-22T23:05:28.938Z,19.63
2023-02-22T23:07:57.420Z,38.25
2023-02-22T23:10:27.627Z,26.70
2023-02-22T23:12:56.569Z,18.05
2023-02-22T23:15:27.481Z,18.98
2023-02-22T23:17:59.308Z,19.80
2023-02-22T23:20:26.696Z,18.38
2023-02-22T23:22:54.605Z,18.80
2023-02-22T23:25:22.366Z,15.13
2023-02-22T23:27:49.551Z,17.92
2023-02-22T23:30:19.700Z,16.88
2023-02-22T23:32:47.268Z,16.77
2023-02-22T23:35:19.278Z,17.02
2023-02-22T23:37:53.579Z,16.58
2023-02-22T23:40:20.780Z,17.00
2023-02-22T23:42:51.334Z,17.35
2023-02-22T23:45:22.872Z,17.38
2023-02-22T23:48:00.850Z,12.95
2023-02-22T23:50:29.758Z,20.85
2023-02-22T23:53:03.716Z,18.55
2023-02-22T23:55:39.213Z,23.63
2023-02-22T23:58:08.739Z,17.67
